Time;durP1;ratioP1;P1;durP2;ratioP2;P2;SDS_P1;SDS_P2;PMS_P1;PMS_P2;Temp;Humidity;BMP_temperature;BMP_pressure;BME280_temperature;BME280_humidity;BME280_pressure;Samples;Min_cycle;Max_cycle;Signal;HPM_P1;HPM_P2
2022/11/14 00:00:25;;;;;;;;;;;21.50;43.80;;;;;;484661;246;1283;-48
2022/11/14 00:02:26;;;;;;;;;;;21.50;43.80;;;;;;484181;246;1225;-49
2022/11/14 00:04:27;;;;;;;;;;;21.50;43.90;;;;;;484264;246;2153;-50
2022/11/14 00:06:29;;;;;;;;;;;21.50;43.90;;;;;;484311;246;1276;-49
2022/11/14 00:08:30;;;;;;;;;;;21.50;43.90;;;;;;484172;246;1278;-49
2022/11/14 00:10:31;;;;;;;;;;;21.50;43.90;;;;;;484254;246;1229;-49
2022/11/14 00:12:33;;;;;;;;;;;21.50;43.90;;;;;;484190;246;1354;-49
2022/11/14 00:14:34;;;;;;;;;;;21.50;43.80;;;;;;484605;246;1325;-49
2022/11/14 00:16:35;;;;;;;;;;;21.50;43.90;;;;;;484637;246;1281;-49
2022/11/14 00:18:37;;;;;;;;;;;21.50;43.90;;;;;;484189;246;1257;-49
2022/11/14 00:20:38;;;;;;;;;;;21.50;43.90;;;;;;484203;246;1391;-50
2022/11/14 00:22:39;;;;;;;;;;;21.50;43.90;;;;;;484689;246;1222;-49
2022/11/14 00:24:41;;;;;;;;;;;21.50;43.90;;;;;;484538;246;2203;-50
2022/11/14 00:26:42;;;;;;;;;;;21.50;43.90;;;;;;484669;246;1223;-50
2022/11/14 00:28:43;;;;;;;;;;;21.50;44.00;;;;;;484640;246;1272;-50
2022/11/14 00:30:44;;;;;;;;;;;21.50;43.90;;;;;;484620;246;1363;-50
2022/11/14 00:32:46;;;;;;;;;;;21.50;43.90;;;;;;484674;246;1349;-49
2022/11/14 00:34:47;;;;;;;;;;;21.50;43.90;;;;;;484197;246;1317;-50
2022/11/14 00:36:49;;;;;;;;;;;21.50;43.90;;;;;;484360;246;1242;-49
2022/11/14 00:38:50;;;;;;;;;;;21.50;43.90;;;;;;484442;246;1757;-49
2022/11/14 00:40:51;;;;;;;;;;;21.40;43.90;;;;;;484230;246;1220;-49
2022/11/14 00:42:52;;;;;;;;;;;21.50;44.00;;;;;;484238;246;1546;-49
2022/11/14 00:44:54;;;;;;;;;;;21.50;43.90;;;;;;484300;246;2199;-49
2022/11/14 00:46:55;;;;;;;;;;;21.50;43.90;;;;;;484695;246;1398;-49
2022/11/14 00:48:56;;;;;;;;;;;21.50;44.00;;;;;;484203;246;1251;-49
2022/11/14 00:50:58;;;;;;;;;;;21.50;43.90;;;;;;484463;246;1202;-49
2022/11/14 00:52:59;;;;;;;;;;;21.50;43.90;;;;;;484669;246;1277;-49
2022/11/14 00:55:00;;;;;;;;;;;21.50;43.90;;;;;;484384;246;1250;-49
2022/11/14 00:57:02;;;;;;;;;;;21.50;43.90;;;;;;484241;246;1233;-49
2022/11/14 00:59:03;;;;;;;;;;;21.50;43.90;;;;;;484174;246;1284;-50
2022/11/14 01:01:04;;;;;;;;;;;21.50;43.90;;;;;;484202;246;1216;-49
2022/11/14 01:03:06;;;;;;;;;;;21.50;43.90;;;;;;484204;246;1282;-49
2022/11/14 01:05:07;;;;;;;;;;;21.50;43.80;;;;;;484422;246;2187;-49
2022/11/14 01:07:08;;;;;;;;;;;21.50;43.90;;;;;;484119;246;1348;-49
2022/11/14 01:09:10;;;;;;;;;;;21.50;43.90;;;;;;484184;246;1352;-49
2022/11/14 01:11:11;;;;;;;;;;;21.50;43.90;;;;;;484651;246;1291;-49
2022/11/14 01:13:12;;;;;;;;;;;21.50;43.90;;;;;;484161;246;1309;-50
2022/11/14 01:15:14;;;;;;;;;;;21.50;43.90;;;;;;484195;246;1261;-49
2022/11/14 01:17:15;;;;;;;;;;;21.50;43.90;;;;;;484219;246;1234;-49
2022/11/14 01:19:16;;;;;;;;;;;21.40;44.00;;;;;;484628;246;1211;-49
2022/11/14 01:21:18;;;;;;;;;;;21.40;44.00;;;;;;484211;246;1257;-49
2022/11/14 01:23:19;;;;;;;;;;;21.40;44.10;;;;;;484461;246;1422;-49
2022/11/14 01:25:20;;;;;;;;;;;21.40;44.10;;;;;;484515;246;2175;-50
2022/11/14 01:27:22;;;;;;;;;;;21.40;44.10;;;;;;484223;246;1432;-49
2022/11/14 01:29:23;;;;;;;;;;;21.40;44.10;;;;;;484202;246;1220;-49
2022/11/14 01:31:24;;;;;;;;;;;21.40;44.10;;;;;;484588;246;1182;-49
2022/11/14 01:33:26;;;;;;;;;;;21.40;44.10;;;;;;484690;246;1234;-49
2022/11/14 01:35:27;;;;;;;;;;;21.40;44.10;;;;;;484690;246;1338;-49
2022/11/14 01:37:28;;;;;;;;;;;21.40;44.20;;;;;;484346;246;1414;-49
2022/11/14 01:39:30;;;;;;;;;;;21.40;44.10;;;;;;484670;246;1238;-50
2022/11/14 01:41:31;;;;;;;;;;;21.40;44.10;;;;;;484680;246;1241;-49
2022/11/14 01:43:32;;;;;;;;;;;21.40;44.10;;;;;;484486;246;1365;-49
2022/11/14 01:45:33;;;;;;;;;;;21.30;44.10;;;;;;484662;246;2144;-49
2022/11/14 01:47:35;;;;;;;;;;;21.30;44.20;;;;;;484216;246;1240;-49
2022/11/14 01:49:36;;;;;;;;;;;21.30;44.20;;;;;;484218;246;1528;-50
2022/11/14 01:51:38;;;;;;;;;;;21.30;44.20;;;;;;484545;246;1215;-50
2022/11/14 01:53:39;;;;;;;;;;;21.40;44.20;;;;;;484228;246;1189;-49
2022/11/14 01:55:40;;;;;;;;;;;21.30;44.20;;;;;;484459;246;1231;-49
2022/11/14 01:57:42;;;;;;;;;;;21.30;44.10;;;;;;484431;246;1242;-49
2022/11/14 01:59:43;;;;;;;;;;;21.40;44.10;;;;;;484653;246;1257;-49
2022/11/14 02:01:44;;;;;;;;;;;21.30;44.10;;;;;;484677;246;1190;-49
2022/11/14 02:03:46;;;;;;;;;;;21.30;44.10;;;;;;484231;246;1311;-49
2022/11/14 02:05:47;;;;;;;;;;;21.40;44.10;;;;;;484633;246;2136;-49
2022/11/14 02:07:48;;;;;;;;;;;21.40;44.10;;;;;;484326;246;1752;-49
2022/11/14 02:09:50;;;;;;;;;;;21.40;44.10;;;;;;484237;246;1170;-50
2022/11/14 02:11:51;;;;;;;;;;;21.40;44.10;;;;;;484226;246;1257;-49
2022/11/14 02:13:52;;;;;;;;;;;21.40;44.10;;;;;;484641;246;1553;-49
2022/11/14 02:15:54;;;;;;;;;;;21.40;44.10;;;;;;484310;246;1197;-50
2022/11/14 02:17:55;;;;;;;;;;;21.40;44.10;;;;;;484213;246;1293;-49
2022/11/14 02:19:57;;;;;;;;;;;21.40;44.10;;;;;;484200;246;1183;-49
2022/11/14 02:21:58;;;;;;;;;;;21.40;44.00;;;;;;484423;246;1350;-49
2022/11/14 02:23:59;;;;;;;;;;;21.40;44.10;;;;;;484160;246;1254;-49
2022/11/14 02:26:00;;;;;;;;;;;21.40;44.10;;;;;;484290;246;2203;-49
2022/11/14 02:28:02;;;;;;;;;;;21.40;44.10;;;;;;484146;246;1402;-49
2022/11/14 02:30:03;;;;;;;;;;;21.40;44.00;;;;;;484319;246;1265;-49
2022/11/14 02:32:04;;;;;;;;;;;21.40;44.10;;;;;;484545;246;1235;-49
2022/11/14 02:34:06;;;;;;;;;;;21.40;44.00;;;;;;484197;246;1444;-49
2022/11/14 02:36:07;;;;;;;;;;;21.50;44.00;;;;;;484192;246;1183;-49
2022/11/14 02:38:08;;;;;;;;;;;21.40;44.00;;;;;;484269;246;1297;-49
2022/11/14 02:40:10;;;;;;;;;;;21.40;44.00;;;;;;484379;246;1280;-50
2022/11/14 02:42:11;;;;;;;;;;;21.40;44.00;;;;;;484660;246;1230;-49
2022/11/14 02:44:12;;;;;;;;;;;21.40;44.00;;;;;;484656;246;1208;-49
2022/11/14 02:46:14;;;;;;;;;;;21.40;44.10;;;;;;484271;246;2144;-50
2022/11/14 02:48:15;;;;;;;;;;;21.40;44.00;;;;;;484688;246;1579;-49
2022/11/14 02:50:16;;;;;;;;;;;21.40;44.00;;;;;;484226;246;1272;-49
2022/11/14 02:52:18;;;;;;;;;;;21.40;44.00;;;;;;484564;246;1776;-49
2022/11/14 02:54:19;;;;;;;;;;;21.40;43.90;;;;;;484445;246;1105;-49
2022/11/14 02:56:20;;;;;;;;;;;21.50;43.90;;;;;;484655;246;1218;-50
2022/11/14 02:58:22;;;;;;;;;;;21.40;43.90;;;;;;484227;246;1087;-49
2022/11/14 03:00:23;;;;;;;;;;;21.40;44.00;;;;;;484696;246;1129;-49
2022/11/14 03:02:24;;;;;;;;;;;21.50;44.10;;;;;;484662;246;1228;-49
2022/11/14 03:04:26;;;;;;;;;;;21.40;44.00;;;;;;484660;246;1255;-49
2022/11/14 03:06:27;;;;;;;;;;;21.40;44.00;;;;;;484571;246;2203;-49
2022/11/14 03:08:28;;;;;;;;;;;21.40;44.00;;;;;;484347;246;1355;-49
2022/11/14 03:10:30;;;;;;;;;;;21.40;43.90;;;;;;484554;246;1327;-49
2022/11/14 03:12:31;;;;;;;;;;;21.40;43.90;;;;;;484424;246;1253;-49
2022/11/14 03:14:32;;;;;;;;;;;21.50;44.00;;;;;;484416;246;1136;-50
2022/11/14 03:16:34;;;;;;;;;;;21.40;43.90;;;;;;484265;246;1240;-49
2022/11/14 03:18:35;;;;;;;;;;;21.40;44.00;;;;;;484221;246;1250;-48
2022/11/14 03:20:36;;;;;;;;;;;21.40;44.00;;;;;;484411;246;1225;-49
2022/11/14 03:22:38;;;;;;;;;;;21.40;44.10;;;;;;484506;246;1631;-49
2022/11/14 03:24:39;;;;;;;;;;;21.40;44.10;;;;;;484650;246;1306;-49
2022/11/14 03:26:40;;;;;;;;;;;21.40;44.20;;;;;;484658;246;2124;-49
2022/11/14 03:28:42;;;;;;;;;;;21.30;44.10;;;;;;484433;246;1573;-49
2022/11/14 03:30:43;;;;;;;;;;;21.30;44.10;;;;;;484570;246;1274;-49
2022/11/14 03:32:44;;;;;;;;;;;21.40;44.10;;;;;;484187;246;1299;-49
2022/11/14 03:34:45;;;;;;;;;;;21.30;44.10;;;;;;484213;246;1215;-49
2022/11/14 03:36:47;;;;;;;;;;;21.30;44.10;;;;;;484446;246;1260;-49
2022/11/14 03:38:48;;;;;;;;;;;21.30;44.20;;;;;;484311;246;1343;-49
2022/11/14 03:40:49;;;;;;;;;;;21.30;44.20;;;;;;484664;246;1240;-49
2022/11/14 03:42:51;;;;;;;;;;;21.30;44.20;;;;;;484383;246;1213;-49
2022/11/14 03:44:52;;;;;;;;;;;21.40;44.20;;;;;;484192;246;1282;-49
2022/11/14 03:46:53;;;;;;;;;;;21.30;44.10;;;;;;484471;246;2195;-50
2022/11/14 03:48:55;;;;;;;;;;;21.40;44.20;;;;;;484541;246;1268;-49
2022/11/14 03:50:56;;;;;;;;;;;21.40;44.10;;;;;;484558;246;1344;-49
2022/11/14 03:52:57;;;;;;;;;;;21.30;44.10;;;;;;484532;246;1293;-49
2022/11/14 03:54:59;;;;;;;;;;;21.40;44.10;;;;;;484657;246;1208;-49
2022/11/14 03:57:00;;;;;;;;;;;21.40;44.10;;;;;;484214;246;1409;-49
2022/11/14 03:59:01;;;;;;;;;;;21.30;44.00;;;;;;484179;246;1239;-49
2022/11/14 04:01:03;;;;;;;;;;;21.40;44.10;;;;;;484312;246;1357;-49
2022/11/14 04:03:04;;;;;;;;;;;21.30;44.10;;;;;;484265;246;1484;-50
2022/11/14 04:05:06;;;;;;;;;;;21.30;44.10;;;;;;484641;246;1420;-48
2022/11/14 04:07:07;;;;;;;;;;;21.30;44.20;;;;;;484647;246;2113;-50
2022/11/14 04:09:08;;;;;;;;;;;21.30;44.20;;;;;;484299;246;1229;-50
2022/11/14 04:11:10;;;;;;;;;;;21.30;44.10;;;;;;484285;246;1257;-50
2022/11/14 04:13:11;;;;;;;;;;;21.30;44.10;;;;;;484546;246;1196;-49
2022/11/14 04:15:12;;;;;;;;;;;21.40;44.10;;;;;;484204;246;1240;-50
2022/11/14 04:17:14;;;;;;;;;;;21.30;44.00;;;;;;484663;246;1318;-49
2022/11/14 04:19:15;;;;;;;;;;;21.40;44.10;;;;;;484682;246;1217;-50
2022/11/14 04:21:16;;;;;;;;;;;21.40;44.10;;;;;;484677;246;1136;-49
2022/11/14 04:23:18;;;;;;;;;;;21.40;44.10;;;;;;484575;246;1329;-49
2022/11/14 04:25:19;;;;;;;;;;;21.40;44.00;;;;;;484619;246;2153;-49
2022/11/14 04:27:20;;;;;;;;;;;21.40;44.00;;;;;;484204;246;1315;-49
2022/11/14 04:29:21;;;;;;;;;;;21.40;43.90;;;;;;484624;246;1316;-48
2022/11/14 04:31:23;;;;;;;;;;;21.40;44.00;;;;;;484673;246;1066;-49
2022/11/14 04:33:24;;;;;;;;;;;21.40;44.00;;;;;;484643;246;1237;-49
2022/11/14 04:35:25;;;;;;;;;;;21.40;44.10;;;;;;484614;246;1285;-49
2022/11/14 04:37:27;;;;;;;;;;;21.30;44.10;;;;;;484216;246;1198;-49
2022/11/14 04:39:28;;;;;;;;;;;21.40;44.10;;;;;;484193;246;1344;-49
2022/11/14 04:41:29;;;;;;;;;;;21.30;44.00;;;;;;484231;246;1273;-50
2022/11/14 04:43:31;;;;;;;;;;;21.40;44.10;;;;;;484252;246;1179;-50
2022/11/14 04:45:32;;;;;;;;;;;21.40;44.10;;;;;;484321;246;2156;-49
2022/11/14 04:47:33;;;;;;;;;;;21.40;44.00;;;;;;484593;246;1632;-49
2022/11/14 04:49:35;;;;;;;;;;;21.40;44.00;;;;;;484623;246;1236;-49
2022/11/14 04:51:36;;;;;;;;;;;21.40;44.00;;;;;;484656;246;1225;-49
2022/11/14 04:53:37;;;;;;;;;;;21.40;44.00;;;;;;484417;246;1286;-49
2022/11/14 04:55:39;;;;;;;;;;;21.40;44.00;;;;;;484642;246;1225;-50
2022/11/14 04:57:40;;;;;;;;;;;21.40;44.00;;;;;;484362;246;1270;-49
2022/11/14 04:59:41;;;;;;;;;;;21.40;44.00;;;;;;484148;246;1229;-49
2022/11/14 05:01:43;;;;;;;;;;;21.30;44.00;;;;;;484196;246;1375;-49
2022/11/14 05:03:44;;;;;;;;;;;21.30;44.10;;;;;;484145;246;1293;-49
2022/11/14 05:05:45;;;;;;;;;;;21.30;44.20;;;;;;484644;246;2168;-49
2022/11/14 05:07:47;;;;;;;;;;;21.30;44.20;;;;;;484217;246;1534;-49
2022/11/14 05:09:48;;;;;;;;;;;21.30;44.20;;;;;;484220;246;1312;-49
2022/11/14 05:11:49;;;;;;;;;;;21.30;44.20;;;;;;484620;246;1316;-49
2022/11/14 05:13:51;;;;;;;;;;;21.30;44.30;;;;;;484120;246;1313;-49
2022/11/14 05:15:52;;;;;;;;;;;21.30;44.20;;;;;;484481;246;1261;-49
2022/11/14 05:17:53;;;;;;;;;;;21.30;44.20;;;;;;484677;246;1391;-49
2022/11/14 05:19:55;;;;;;;;;;;21.30;44.20;;;;;;484326;246;1317;-49
2022/11/14 05:21:56;;;;;;;;;;;21.30;44.20;;;;;;484255;246;1273;-50
2022/11/14 05:23:57;;;;;;;;;;;21.30;44.20;;;;;;484508;246;1246;-49
2022/11/14 05:25:59;;;;;;;;;;;21.30;44.20;;;;;;484509;246;2191;-49
2022/11/14 05:28:00;;;;;;;;;;;21.20;44.30;;;;;;484596;246;1202;-49
2022/11/14 05:30:01;;;;;;;;;;;21.30;44.30;;;;;;484182;246;1162;-49
2022/11/14 05:32:02;;;;;;;;;;;21.30;44.30;;;;;;484533;246;1218;-49
2022/11/14 05:34:04;;;;;;;;;;;21.30;44.30;;;;;;484196;246;1253;-49
2022/11/14 05:36:05;;;;;;;;;;;21.30;44.30;;;;;;484579;246;1237;-49
2022/11/14 05:38:06;;;;;;;;;;;21.20;44.30;;;;;;484427;246;1309;-50
2022/11/14 05:40:08;;;;;;;;;;;21.30;44.30;;;;;;484269;246;1345;-50
2022/11/14 05:42:09;;;;;;;;;;;21.30;44.30;;;;;;484295;246;1206;-49
2022/11/14 05:44:10;;;;;;;;;;;21.30;44.20;;;;;;484202;246;1349;-49
2022/11/14 05:46:12;;;;;;;;;;;21.30;44.20;;;;;;483972;246;2196;-49
2022/11/14 05:48:13;;;;;;;;;;;21.30;44.20;;;;;;484276;246;1624;-50
2022/11/14 05:50:15;;;;;;;;;;;21.30;44.10;;;;;;484290;246;1271;-49
2022/11/14 05:52:16;;;;;;;;;;;21.30;44.10;;;;;;484618;246;1303;-49
2022/11/14 05:54:17;;;;;;;;;;;21.30;44.10;;;;;;484361;246;1486;-49
2022/11/14 05:56:18;;;;;;;;;;;21.30;44.20;;;;;;484507;246;1251;-49
2022/11/14 05:58:20;;;;;;;;;;;21.30;44.20;;;;;;484125;246;1740;-50
2022/11/14 06:00:21;;;;;;;;;;;21.30;44.10;;;;;;484626;246;1338;-50
2022/11/14 06:02:22;;;;;;;;;;;21.30;44.20;;;;;;484162;246;1250;-49
2022/11/14 06:04:24;;;;;;;;;;;21.30;44.10;;;;;;484128;246;1552;-49
2022/11/14 06:06:25;;;;;;;;;;;21.30;44.10;;;;;;484164;246;2177;-49
2022/11/14 06:08:27;;;;;;;;;;;21.30;44.00;;;;;;484632;246;1281;-49
2022/11/14 06:10:28;;;;;;;;;;;21.30;44.10;;;;;;484165;246;1262;-49
2022/11/14 06:12:29;;;;;;;;;;;21.40;44.10;;;;;;484505;243;1219;-49
2022/11/14 06:14:31;;;;;;;;;;;21.40;44.10;;;;;;484203;246;1221;-50
2022/11/14 06:16:32;;;;;;;;;;;21.40;44.00;;;;;;484394;246;1227;-49
2022/11/14 06:18:33;;;;;;;;;;;21.40;44.10;;;;;;484135;246;1295;-50
2022/11/14 06:20:35;;;;;;;;;;;21.40;44.00;;;;;;484196;246;1211;-49
2022/11/14 06:22:36;;;;;;;;;;;21.40;44.00;;;;;;484217;246;1290;-50
2022/11/14 06:24:37;;;;;;;;;;;21.40;44.00;;;;;;484107;246;1230;-49
2022/11/14 06:26:39;;;;;;;;;;;21.50;43.90;;;;;;484142;246;2152;-49
2022/11/14 06:28:40;;;;;;;;;;;21.60;43.60;;;;;;484261;246;1198;-49
2022/11/14 06:30:41;;;;;;;;;;;21.80;43.30;;;;;;484089;246;1196;-49
2022/11/14 06:32:43;;;;;;;;;;;21.90;43.00;;;;;;484034;246;1405;-49
2022/11/14 06:34:44;;;;;;;;;;;22.00;43.00;;;;;;484131;246;1307;-49
2022/11/14 06:36:45;;;;;;;;;;;21.90;43.00;;;;;;484353;246;1339;-48
2022/11/14 06:38:49;;;;;;;;;;;21.80;43.20;;;;;;484158;246;1204;-49
2022/11/14 06:40:51;;;;;;;;;;;21.70;43.30;;;;;;483984;246;1210;-50
2022/11/14 06:42:52;;;;;;;;;;;21.60;43.50;;;;;;484369;246;1315;-49
2022/11/14 06:44:53;;;;;;;;;;;21.50;43.60;;;;;;484312;246;1243;-49
2022/11/14 06:46:55;;;;;;;;;;;21.50;43.70;;;;;;484221;246;2188;-49
2022/11/14 06:48:56;;;;;;;;;;;21.40;43.90;;;;;;484125;246;1202;-50
2022/11/14 06:50:58;;;;;;;;;;;21.40;44.00;;;;;;484256;246;1360;-49
2022/11/14 06:52:59;;;;;;;;;;;21.40;43.90;;;;;;484110;246;1264;-49
2022/11/14 06:55:00;;;;;;;;;;;21.40;44.00;;;;;;484112;246;1253;-48
2022/11/14 06:57:01;;;;;;;;;;;21.40;44.10;;;;;;484086;246;1236;-49
2022/11/14 06:59:03;;;;;;;;;;;21.40;44.10;;;;;;484030;246;1261;-49
2022/11/14 07:01:04;;;;;;;;;;;21.30;44.00;;;;;;484545;246;1219;-49
2022/11/14 07:03:06;;;;;;;;;;;21.30;44.00;;;;;;484037;246;1184;-49
2022/11/14 07:05:07;;;;;;;;;;;21.40;44.10;;;;;;484198;246;1186;-49
2022/11/14 07:07:08;;;;;;;;;;;21.40;44.00;;;;;;483984;246;2176;-50
2022/11/14 07:09:10;;;;;;;;;;;21.40;44.00;;;;;;484084;246;1327;-50
2022/11/14 07:11:11;;;;;;;;;;;21.40;43.90;;;;;;484097;246;1080;-50
2022/11/14 07:13:12;;;;;;;;;;;21.40;43.90;;;;;;484122;246;1103;-50
2022/11/14 07:15:14;;;;;;;;;;;21.40;43.90;;;;;;484570;246;1061;-49
2022/11/14 07:17:15;;;;;;;;;;;21.40;43.90;;;;;;484608;246;1245;-49
2022/11/14 07:19:16;;;;;;;;;;;21.40;43.80;;;;;;484142;246;1105;-49
2022/11/14 07:21:18;;;;;;;;;;;21.40;43.80;;;;;;484347;246;1121;-49
2022/11/14 07:23:19;;;;;;;;;;;21.40;43.90;;;;;;484161;246;1337;-49
2022/11/14 07:25:21;;;;;;;;;;;21.40;43.70;;;;;;484134;246;1212;-49
2022/11/14 07:27:22;;;;;;;;;;;21.40;43.70;;;;;;484201;246;2203;-50
2022/11/14 07:29:23;;;;;;;;;;;21.40;43.70;;;;;;484116;246;1357;-50
2022/11/14 07:31:24;;;;;;;;;;;21.40;43.70;;;;;;483961;246;1160;-49
2022/11/14 07:33:25;;;;;;;;;;;21.40;43.70;;;;;;484025;246;1344;-49
2022/11/14 07:35:27;;;;;;;;;;;21.40;43.80;;;;;;484321;246;1265;-49
2022/11/14 07:37:28;;;;;;;;;;;21.30;43.80;;;;;;484084;246;1329;-49
2022/11/14 07:39:29;;;;;;;;;;;21.30;43.80;;;;;;484120;246;1231;-49
2022/11/14 07:41:31;;;;;;;;;;;21.30;43.80;;;;;;483977;246;1307;-49
2022/11/14 07:43:32;;;;;;;;;;;21.30;43.80;;;;;;484085;246;1607;-50
2022/11/14 07:45:33;;;;;;;;;;;21.30;43.80;;;;;;484400;246;1310;-49
2022/11/14 07:47:35;;;;;;;;;;;21.30;43.80;;;;;;483932;246;2192;-48
2022/11/14 07:49:36;;;;;;;;;;;21.30;43.80;;;;;;483804;246;1392;-49
2022/11/14 07:51:37;;;;;;;;;;;21.30;43.70;;;;;;484157;246;1250;-50
2022/11/14 07:53:39;;;;;;;;;;;21.40;43.80;;;;;;483911;246;1209;-50
2022/11/14 07:55:40;;;;;;;;;;;21.30;43.80;;;;;;484030;246;1203;-49
2022/11/14 07:57:41;;;;;;;;;;;21.30;43.80;;;;;;484185;246;1493;-49
2022/11/14 07:59:43;;;;;;;;;;;21.30;43.90;;;;;;484005;246;1358;-49
2022/11/14 08:01:44;;;;;;;;;;;21.30;43.80;;;;;;484039;246;1544;-49
2022/11/14 08:03:45;;;;;;;;;;;21.30;43.70;;;;;;483808;246;1170;-50
2022/11/14 08:05:47;;;;;;;;;;;21.30;43.70;;;;;;483740;246;1244;-49
2022/11/14 08:07:48;;;;;;;;;;;21.30;43.70;;;;;;483844;246;2184;-49
2022/11/14 08:09:49;;;;;;;;;;;21.40;43.70;;;;;;483738;246;1347;-49
2022/11/14 08:11:51;;;;;;;;;;;21.40;43.60;;;;;;483821;246;1320;-49
2022/11/14 08:13:52;;;;;;;;;;;21.30;43.60;;;;;;483767;246;1204;-49
2022/11/14 08:15:53;;;;;;;;;;;21.30;43.60;;;;;;484041;246;1269;-49
2022/11/14 08:17:55;;;;;;;;;;;21.30;43.60;;;;;;484012;246;1257;-50
2022/11/14 08:19:56;;;;;;;;;;;21.30;43.60;;;;;;484070;246;1505;-49
2022/11/14 08:21:57;;;;;;;;;;;21.40;43.50;;;;;;484072;246;1233;-49
2022/11/14 08:23:59;;;;;;;;;;;21.40;43.50;;;;;;483892;246;1479;-49
2022/11/14 08:26:00;;;;;;;;;;;21.40;43.50;;;;;;483796;246;1568;-49
2022/11/14 08:28:01;;;;;;;;;;;21.40;43.50;;;;;;483789;246;2203;-49
2022/11/14 08:30:03;;;;;;;;;;;21.40;43.40;;;;;;483758;246;1281;-50
2022/11/14 08:32:04;;;;;;;;;;;21.40;43.30;;;;;;483709;246;1307;-49
2022/11/14 08:34:05;;;;;;;;;;;21.40;43.30;;;;;;483578;246;1377;-49
2022/11/14 08:36:06;;;;;;;;;;;21.40;43.30;;;;;;483925;246;1227;-49
2022/11/14 08:38:08;;;;;;;;;;;21.40;43.30;;;;;;483763;246;1291;-49
2022/11/14 08:40:10;;;;;;;;;;;21.40;43.30;;;;;;483763;246;1368;-49
2022/11/14 08:42:11;;;;;;;;;;;21.40;43.40;;;;;;483890;246;1325;-49
2022/11/14 08:44:12;;;;;;;;;;;21.40;43.30;;;;;;483992;246;1321;-49
2022/11/14 08:46:13;;;;;;;;;;;21.40;43.30;;;;;;483981;246;1440;-49
2022/11/14 08:48:15;;;;;;;;;;;21.50;43.30;;;;;;484110;246;2203;-49
2022/11/14 08:50:16;;;;;;;;;;;21.40;43.30;;;;;;483890;246;1392;-49
2022/11/14 08:52:17;;;;;;;;;;;21.40;43.30;;;;;;484295;246;1304;-49
2022/11/14 08:54:19;;;;;;;;;;;21.40;43.20;;;;;;483902;246;1110;-49
2022/11/14 08:56:20;;;;;;;;;;;21.40;43.20;;;;;;484036;246;1283;-50
2022/11/14 08:58:21;;;;;;;;;;;21.40;43.20;;;;;;484219;246;1087;-49
2022/11/14 09:00:23;;;;;;;;;;;21.40;43.20;;;;;;484049;246;1136;-49
2022/11/14 09:02:24;;;;;;;;;;;21.40;43.20;;;;;;484401;246;1198;-50
2022/11/14 09:04:26;;;;;;;;;;;21.40;43.20;;;;;;483876;246;1229;-49
2022/11/14 09:06:27;;;;;;;;;;;21.40;43.20;;;;;;483776;246;1288;-50
2022/11/14 09:08:28;;;;;;;;;;;21.50;43.20;;;;;;484114;246;2172;-49
2022/11/14 09:10:30;;;;;;;;;;;21.50;43.20;;;;;;483897;246;1234;-49
2022/11/14 09:12:31;;;;;;;;;;;21.50;43.20;;;;;;484034;246;1347;-49
2022/11/14 09:14:32;;;;;;;;;;;21.50;43.10;;;;;;483996;246;1821;-50
2022/11/14 09:16:34;;;;;;;;;;;21.50;43.10;;;;;;483801;246;1297;-49
2022/11/14 09:18:35;;;;;;;;;;;21.50;43.10;;;;;;483923;246;1423;-49
2022/11/14 09:20:36;;;;;;;;;;;21.50;43.10;;;;;;483901;246;1181;-49
2022/11/14 09:22:38;;;;;;;;;;;21.50;43.00;;;;;;483752;246;1287;-49
2022/11/14 09:24:39;;;;;;;;;;;21.50;43.00;;;;;;483851;246;1225;-49
2022/11/14 09:26:40;;;;;;;;;;;21.50;43.00;;;;;;483805;246;1467;-49
2022/11/14 09:28:42;;;;;;;;;;;21.50;43.00;;;;;;483898;246;2244;-49
2022/11/14 09:30:43;;;;;;;;;;;21.50;43.00;;;;;;483809;246;1400;-50
2022/11/14 09:32:44;;;;;;;;;;;21.50;43.00;;;;;;483920;246;1179;-49
2022/11/14 09:34:46;;;;;;;;;;;21.50;43.00;;;;;;483732;246;1219;-49
2022/11/14 09:36:47;;;;;;;;;;;21.50;43.00;;;;;;483843;246;1471;-49
2022/11/14 09:38:48;;;;;;;;;;;21.50;43.00;;;;;;484019;246;1222;-49
2022/11/14 09:40:50;;;;;;;;;;;21.50;43.00;;;;;;483824;246;1250;-50
2022/11/14 09:42:51;;;;;;;;;;;21.50;43.00;;;;;;483795;246;1254;-50
2022/11/14 09:44:52;;;;;;;;;;;21.50;43.10;;;;;;483941;246;1279;-49
2022/11/14 09:46:54;;;;;;;;;;;21.50;43.00;;;;;;483912;246;1170;-50
2022/11/14 09:48:55;;;;;;;;;;;21.60;42.80;;;;;;483801;246;2192;-49
2022/11/14 09:50:57;;;;;;;;;;;21.80;42.40;;;;;;483909;246;1291;-50
2022/11/14 09:52:58;;;;;;;;;;;21.90;42.10;;;;;;483874;246;1335;-49
2022/11/14 09:54:59;;;;;;;;;;;22.10;41.80;;;;;;483905;246;1257;-49
2022/11/14 09:57:01;;;;;;;;;;;22.20;41.60;;;;;;483888;246;2067;-49
2022/11/14 09:59:02;;;;;;;;;;;22.10;41.50;;;;;;483953;246;1239;-49
2022/11/14 10:01:03;;;;;;;;;;;22.10;41.60;;;;;;483764;246;1371;-49
2022/11/14 10:03:05;;;;;;;;;;;22.00;41.80;;;;;;483828;246;1306;-49
2022/11/14 10:05:06;;;;;;;;;;;21.90;42.10;;;;;;483867;246;1229;-49
2022/11/14 10:07:07;;;;;;;;;;;21.80;42.30;;;;;;483756;246;1185;-49
2022/11/14 10:09:09;;;;;;;;;;;21.80;42.30;;;;;;483773;246;2164;-49
2022/11/14 10:11:10;;;;;;;;;;;21.70;42.40;;;;;;483912;246;1970;-49
2022/11/14 10:13:11;;;;;;;;;;;21.70;42.40;;;;;;483820;246;1181;-49
2022/11/14 10:15:12;;;;;;;;;;;21.70;42.50;;;;;;483634;246;1188;-49
2022/11/14 10:17:14;;;;;;;;;;;21.70;42.50;;;;;;483850;246;1411;-50
2022/11/14 10:19:15;;;;;;;;;;;21.70;42.60;;;;;;483783;246;1225;-48
2022/11/14 10:21:17;;;;;;;;;;;21.70;42.60;;;;;;483807;246;1539;-49
2022/11/14 10:23:18;;;;;;;;;;;21.70;42.70;;;;;;483464;246;1197;-49
2022/11/14 10:25:19;;;;;;;;;;;21.70;42.60;;;;;;483678;246;1445;-49
2022/11/14 10:27:21;;;;;;;;;;;21.60;42.60;;;;;;483778;246;1629;-49
2022/11/14 10:29:22;;;;;;;;;;;21.70;42.60;;;;;;483614;246;2186;-49
2022/11/14 10:31:23;;;;;;;;;;;21.60;42.60;;;;;;483551;246;1245;-49
2022/11/14 10:33:25;;;;;;;;;;;21.60;42.60;;;;;;483619;246;1761;-49
2022/11/14 10:35:26;;;;;;;;;;;21.60;42.70;;;;;;483779;246;1240;-50
2022/11/14 10:37:27;;;;;;;;;;;21.60;42.60;;;;;;483751;246;1354;-50
2022/11/14 10:39:29;;;;;;;;;;;21.60;42.60;;;;;;483608;246;1439;-48
2022/11/14 10:41:30;;;;;;;;;;;21.60;42.60;;;;;;483685;246;1247;-49
2022/11/14 10:43:31;;;;;;;;;;;21.60;42.60;;;;;;483813;246;1185;-49
2022/11/14 10:45:33;;;;;;;;;;;21.60;42.60;;;;;;483718;246;1336;-49
2022/11/14 10:47:34;;;;;;;;;;;21.70;42.70;;;;;;483705;246;2176;-49
2022/11/14 10:49:35;;;;;;;;;;;21.60;42.60;;;;;;483681;246;1311;-49
2022/11/14 10:51:36;;;;;;;;;;;21.60;42.60;;;;;;483625;246;1690;-49
2022/11/14 10:53:38;;;;;;;;;;;21.60;42.70;;;;;;483650;246;1468;-49
2022/11/14 10:55:39;;;;;;;;;;;21.60;42.70;;;;;;483879;246;1820;-49
2022/11/14 10:57:40;;;;;;;;;;;21.60;42.70;;;;;;483691;246;1179;-49
2022/11/14 10:59:42;;;;;;;;;;;21.50;42.80;;;;;;483438;246;1513;-49
2022/11/14 11:01:44;;;;;;;;;;;21.60;42.80;;;;;;483630;246;1278;-49
2022/11/14 11:03:45;;;;;;;;;;;21.50;42.80;;;;;;483635;246;1280;-49
2022/11/14 11:05:46;;;;;;;;;;;21.50;42.80;;;;;;483820;246;1381;-49
2022/11/14 11:12:26;;;;;;;;;;;21.50;42.80;;;;;;483622;246;1199;-50
2022/11/14 11:14:28;;;;;;;;;;;21.50;42.80;;;;;;483558;246;1426;-49
2022/11/14 11:16:29;;;;;;;;;;;21.50;42.90;;;;;;483942;246;1180;-49
2022/11/14 11:18:30;;;;;;;;;;;21.50;42.90;;;;;;483687;246;1328;-49
2022/11/14 11:20:32;;;;;;;;;;;21.50;42.90;;;;;;483867;246;1193;-50
2022/11/14 11:22:33;;;;;;;;;;;21.50;42.90;;;;;;483724;246;1571;-49
2022/11/14 11:24:34;;;;;;;;;;;21.50;42.80;;;;;;483504;246;1582;-49
2022/11/14 11:26:35;;;;;;;;;;;21.50;42.90;;;;;;483634;246;1289;-49
2022/11/14 11:28:37;;;;;;;;;;;21.50;42.90;;;;;;483580;246;2196;-50
2022/11/14 11:30:38;;;;;;;;;;;21.50;42.90;;;;;;483846;246;1393;-49
2022/11/14 11:32:40;;;;;;;;;;;21.50;42.90;;;;;;483977;246;1271;-49
2022/11/14 11:34:41;;;;;;;;;;;21.50;42.90;;;;;;483943;246;1346;-50
2022/11/14 11:36:42;;;;;;;;;;;21.50;42.80;;;;;;483969;246;1279;-49
2022/11/14 11:38:43;;;;;;;;;;;21.50;42.80;;;;;;483982;246;1647;-49
2022/11/14 11:40:46;;;;;;;;;;;21.50;42.80;;;;;;483829;246;1650;-49
2022/11/14 11:42:47;;;;;;;;;;;21.50;42.80;;;;;;483779;246;1742;-48
2022/11/14 11:44:48;;;;;;;;;;;21.50;42.90;;;;;;483726;246;1513;-49
2022/11/14 11:46:49;;;;;;;;;;;21.50;42.80;;;;;;483805;246;1259;-49
2022/11/14 11:48:51;;;;;;;;;;;21.50;42.80;;;;;;483902;246;2187;-49
2022/11/14 11:50:52;;;;;;;;;;;21.50;42.90;;;;;;483719;246;1834;-49
2022/11/14 11:52:53;;;;;;;;;;;21.50;42.80;;;;;;483833;246;1229;-49
2022/11/14 11:54:54;;;;;;;;;;;21.50;42.80;;;;;;483880;246;1291;-48
2022/11/14 11:56:57;;;;;;;;;;;21.50;42.70;;;;;;483810;246;1281;-49
2022/11/14 11:58:58;;;;;;;;;;;21.50;42.70;;;;;;483628;246;1356;-50
2022/11/14 12:00:59;;;;;;;;;;;21.60;42.80;;;;;;483557;246;1498;-49